Time;durP1;ratioP1;P1;durP2;ratioP2;P2;SDS_P1;SDS_P2;PMS_P1;PMS_P2;Temp;Humidity;BMP_temperature;BMP_pressure;BME280_temperature;BME280_humidity;BME280_pressure;Samples;Min_cycle;Max_cycle;Signal;HPM_P1;HPM_P2
2022/03/29 00:01:35;;;;;;;21.23;13.63;;;8.70;67.20;;;;;;6340607;22;20014;-81
2022/03/29 00:04:00;;;;;;;20.17;14.02;;;8.70;67.20;;;;;;6340848;22;20540;-85
2022/03/29 00:06:26;;;;;;;19.42;14.70;;;8.70;67.20;;;;;;6340647;22;20014;-81
2022/03/29 00:08:52;;;;;;;22.58;14.55;;;8.70;67.20;;;;;;6312894;22;20052;-82
2022/03/29 00:11:18;;;;;;;21.17;14.98;;;8.70;67.20;;;;;;6313289;22;20010;-82
2022/03/29 00:13:44;;;;;;;19.38;15.13;;;8.70;67.20;;;;;;6340667;22;20019;-82
2022/03/29 00:16:10;;;;;;;18.50;13.80;;;8.60;67.30;;;;;;6340546;22;20363;-82
2022/03/29 00:18:36;;;;;;;18.92;14.40;;;8.60;67.30;;;;;;6312783;22;20052;-82
2022/03/29 00:21:01;;;;;;;19.40;13.38;;;8.70;67.40;;;;;;6340767;22;20014;-82
2022/03/29 00:23:27;;;;;;;21.10;15.32;;;8.60;67.40;;;;;;6312375;22;20017;-82
2022/03/29 00:25:53;;;;;;;20.45;14.45;;;8.70;67.60;;;;;;6340923;22;20056;-82
2022/03/29 00:28:18;;;;;;;21.15;14.55;;;8.60;67.70;;;;;;6340040;22;20047;-82
2022/03/29 00:30:44;;;;;;;20.98;14.40;;;8.70;67.70;;;;;;6340539;22;20018;-82
2022/03/29 00:33:10;;;;;;;16.20;12.73;;;8.70;67.50;;;;;;6340275;22;20426;-82
2022/03/29 00:35:35;;;;;;;18.23;13.90;;;8.60;67.30;;;;;;6340363;22;20322;-82
2022/03/29 00:38:01;;;;;;;18.67;13.82;;;8.60;67.30;;;;;;6312825;22;20011;-82
2022/03/29 00:40:27;;;;;;;19.92;13.77;;;8.50;67.40;;;;;;6287026;22;20029;-81
2022/03/29 00:42:52;;;;;;;19.75;13.77;;;8.50;67.50;;;;;;6340973;22;20090;-82
2022/03/29 00:45:18;;;;;;;17.83;14.13;;;8.50;67.40;;;;;;6312591;22;20019;-82
2022/03/29 00:47:44;;;;;;;19.45;13.48;;;8.50;67.50;;;;;;6339570;22;20015;-82
2022/03/29 00:50:10;;;;;;;18.75;14.30;;;8.40;67.60;;;;;;6340569;22;20335;-82
2022/03/29 00:52:38;;;;;;;18.88;12.93;;;8.40;67.70;;;;;;6340521;22;20033;-82
2022/03/29 00:55:05;;;;;;;21.85;15.73;;;8.30;67.80;;;;;;6340209;22;20086;-82
2022/03/29 00:57:33;;;;;;;19.55;14.23;;;8.30;68.00;;;;;;6312574;22;20453;-82
2022/03/29 00:59:59;;;;;;;17.95;13.73;;;8.30;68.10;;;;;;6340374;22;20015;-82
2022/03/29 01:02:24;;;;;;;20.38;15.48;;;8.30;68.20;;;;;;6340200;22;20457;-82
2022/03/29 01:04:50;;;;;;;20.75;16.17;;;8.30;68.10;;;;;;6340121;22;20018;-81
2022/03/29 01:07:16;;;;;;;19.02;14.00;;;8.30;68.10;;;;;;6340301;22;20014;-82
2022/03/29 01:09:42;;;;;;;19.00;15.30;;;8.30;68.10;;;;;;6340352;22;20018;-82
2022/03/29 01:12:08;;;;;;;18.23;14.82;;;8.30;68.30;;;;;;6312260;22;20101;-82
2022/03/29 01:14:34;;;;;;;20.45;15.40;;;8.30;68.30;;;;;;6340459;22;20025;-82
2022/03/29 01:19:47;;;;;;;22.42;16.52;;;8.30;68.20;;;;;;6340159;22;20054;-82
2022/03/29 01:22:13;;;;;;;22.02;16.80;;;8.20;68.00;;;;;;6312196;22;20019;-82
2022/03/29 01:24:46;;;;;;;20.40;16.23;;;8.20;68.10;;;;;;6312139;22;20021;-82
2022/03/29 01:27:12;;;;;;;20.20;16.38;;;8.20;68.10;;;;;;6340237;22;20014;-82
2022/03/29 01:29:39;;;;;;;20.55;15.25;;;8.20;68.20;;;;;;6340069;22;20014;-82
2022/03/29 01:32:10;;;;;;;21.30;15.43;;;8.20;68.30;;;;;;6340353;22;20052;-82
2022/03/29 01:34:39;;;;;;;21.38;14.52;;;8.20;68.30;;;;;;6312137;22;20022;-81
2022/03/29 01:37:05;;;;;;;17.60;13.75;;;8.10;68.30;;;;;;6339850;22;20015;-82
2022/03/29 01:39:32;;;;;;;22.60;16.35;;;8.10;68.40;;;;;;6339789;22;20100;-82
2022/03/29 01:41:58;;;;;;;17.67;13.32;;;8.10;68.50;;;;;;6312047;22;20007;-82
2022/03/29 01:44:23;;;;;;;17.33;13.88;;;8.40;68.70;;;;;;6312006;22;20054;-82
2022/03/29 01:46:49;;;;;;;18.20;14.95;;;8.10;68.60;;;;;;6284938;22;20044;-81
2022/03/29 01:49:15;;;;;;;17.58;15.00;;;8.10;68.60;;;;;;6339495;22;20018;-82
2022/03/29 01:51:41;;;;;;;21.95;17.02;;;8.20;68.70;;;;;;6312045;22;20053;-81
2022/03/29 01:54:06;;;;;;;18.63;14.73;;;8.20;68.60;;;;;;6311714;22;20026;-81
2022/03/29 01:56:34;;;;;;;19.95;15.75;;;8.20;68.60;;;;;;6340160;22;20018;-81
2022/03/29 01:59:05;;;;;;;22.92;16.73;;;8.20;68.50;;;;;;6339648;22;20015;-82
2022/03/29 02:01:41;;;;;;;20.30;15.90;;;8.20;68.40;;;;;;6311478;22;20023;-81
2022/03/29 02:04:07;;;;;;;18.30;15.35;;;8.20;68.30;;;;;;6339934;22;20021;-82
2022/03/29 02:06:33;;;;;;;16.85;13.68;;;8.20;68.20;;;;;;6339869;22;20010;-82
2022/03/29 02:08:59;;;;;;;15.57;12.80;;;8.30;68.30;;;;;;6339822;22;20082;-82
2022/03/29 02:11:26;;;;;;;18.55;14.25;;;8.30;68.30;;;;;;6340254;22;20022;-82
2022/03/29 02:13:54;;;;;;;17.13;12.80;;;8.30;68.30;;;;;;6339705;22;20011;-81
2022/03/29 02:16:20;;;;;;;18.00;14.60;;;8.30;68.20;;;;;;6339478;22;20087;-82
2022/03/29 02:18:46;;;;;;;20.73;15.48;;;8.40;68.10;;;;;;6339624;22;20361;-82
2022/03/29 02:21:15;;;;;;;20.00;16.33;;;8.40;68.10;;;;;;6310550;22;20019;-81
2022/03/29 02:23:41;;;;;;;20.42;15.30;;;8.40;68.00;;;;;;6339742;22;20026;-81
2022/03/29 02:26:07;;;;;;;18.20;15.05;;;8.50;67.90;;;;;;6339538;22;20039;-82
2022/03/29 02:28:33;;;;;;;22.38;17.08;;;8.50;67.90;;;;;;6340007;22;20453;-82
2022/03/29 02:30:59;;;;;;;15.88;13.35;;;8.50;67.80;;;;;;6339650;22;20019;-82
2022/03/29 02:33:25;;;;;;;16.60;13.32;;;8.50;67.80;;;;;;6311399;22;20022;-81
2022/03/29 02:35:50;;;;;;;18.77;14.70;;;8.50;67.80;;;;;;6339334;22;20022;-81
2022/03/29 02:38:18;;;;;;;18.20;13.98;;;8.50;67.80;;;;;;6339565;22;20050;-82
2022/03/29 02:40:44;;;;;;;17.35;13.07;;;8.60;67.80;;;;;;6311374;22;20011;-82
2022/03/29 02:43:10;;;;;;;18.45;15.18;;;8.60;67.70;;;;;;6339669;22;20019;-82
2022/03/29 02:45:36;;;;;;;21.73;15.18;;;8.60;67.60;;;;;;6311401;22;20060;-82
2022/03/29 02:48:02;;;;;;;19.38;14.82;;;8.70;67.60;;;;;;6310772;22;20018;-82
2022/03/29 02:50:28;;;;;;;20.52;15.43;;;8.70;67.40;;;;;;6311625;22;20018;-81
2022/03/29 02:52:59;;;;;;;21.77;16.90;;;8.70;67.30;;;;;;6313450;22;20454;-82
2022/03/29 02:55:27;;;;;;;17.38;14.20;;;8.70;67.10;;;;;;6340053;22;20015;-82
2022/03/29 02:57:53;;;;;;;19.60;15.27;;;8.70;67.10;;;;;;6341286;22;20011;-81
2022/03/29 03:00:20;;;;;;;20.10;14.85;;;8.70;67.00;;;;;;6341769;22;20386;-81
2022/03/29 03:02:50;;;;;;;16.83;13.70;;;8.70;66.90;;;;;;6341714;22;20015;-81
2022/03/29 03:05:16;;;;;;;17.63;14.10;;;8.70;66.90;;;;;;6313705;22;20026;-80
2022/03/29 03:07:43;;;;;;;15.85;13.20;;;8.70;66.90;;;;;;6322458;22;20319;-81
2022/03/29 03:10:10;;;;;;;19.20;14.43;;;8.70;67.40;;;;;;6328519;22;20065;-81
2022/03/29 03:12:37;;;;;;;17.58;14.43;;;8.70;67.00;;;;;;6325683;22;20010;-81
2022/03/29 03:15:05;;;;;;;20.67;15.50;;;8.70;66.90;;;;;;6345386;22;20057;-81
2022/03/29 03:17:31;;;;;;;23.98;17.27;;;8.70;66.90;;;;;;6341063;22;20024;-82
2022/03/29 03:19:57;;;;;;;19.98;15.10;;;8.70;66.80;;;;;;6313249;22;20026;-81
2022/03/29 03:22:23;;;;;;;20.52;15.82;;;8.60;66.60;;;;;;6341505;22;20007;-81
2022/03/29 03:24:49;;;;;;;23.90;17.30;;;8.60;66.80;;;;;;6341754;22;20444;-82
2022/03/29 03:27:19;;;;;;;23.58;16.85;;;8.50;66.70;;;;;;6313354;22;20018;-81
2022/03/29 03:29:45;;;;;;;21.98;16.55;;;8.40;66.80;;;;;;6340895;22;20019;-81
2022/03/29 03:32:11;;;;;;;22.35;15.93;;;8.50;67.00;;;;;;6341677;22;20081;-81
2022/03/29 03:34:38;;;;;;;23.85;16.48;;;8.40;67.00;;;;;;6313209;22;20023;-81
2022/03/29 03:37:04;;;;;;;25.10;17.33;;;8.40;67.20;;;;;;6340967;22;20015;-81
2022/03/29 03:39:32;;;;;;;25.52;18.20;;;8.50;67.20;;;;;;6341208;22;20421;-81
2022/03/29 03:41:58;;;;;;;26.60;18.15;;;8.30;67.20;;;;;;6313166;22;20018;-81
2022/03/29 03:44:23;;;;;;;25.50;17.80;;;8.20;67.30;;;;;;6340705;22;20015;-81
2022/03/29 03:46:49;;;;;;;27.95;17.15;;;8.20;67.50;;;;;;6313574;22;20015;-81
2022/03/29 03:49:15;;;;;;;24.95;17.33;;;8.20;67.60;;;;;;6313082;22;20014;-81
2022/03/29 03:51:40;;;;;;;28.45;17.90;;;8.10;67.70;;;;;;6313092;22;20018;-82
2022/03/29 03:54:06;;;;;;;25.02;16.98;;;8.10;67.80;;;;;;6312775;22;20456;-81
2022/03/29 03:56:32;;;;;;;23.48;16.65;;;8.10;67.80;;;;;;6313079;22;20461;-81
2022/03/29 03:58:58;;;;;;;30.63;18.27;;;8.10;68.00;;;;;;6340669;22;20007;-81
2022/03/29 04:01:24;;;;;;;22.92;16.63;;;8.10;68.20;;;;;;6312902;22;20030;-81
2022/03/29 04:03:50;;;;;;;26.42;18.15;;;8.10;68.20;;;;;;6312944;22;20330;-81
2022/03/29 04:06:15;;;;;;;26.55;18.02;;;8.10;68.30;;;;;;6340490;22;20045;-82
2022/03/29 04:08:41;;;;;;;22.95;17.15;;;8.10;68.30;;;;;;6340709;22;20014;-81
2022/03/29 04:11:07;;;;;;;21.42;16.40;;;8.10;68.40;;;;;;6340837;22;20034;-82
2022/03/29 04:13:34;;;;;;;29.38;19.42;;;8.10;68.50;;;;;;6312824;22;20023;-82
2022/03/29 04:16:03;;;;;;;28.08;19.15;;;8.10;68.50;;;;;;6340267;22;20011;-82
2022/03/29 04:18:29;;;;;;;26.67;18.60;;;8.10;68.30;;;;;;6313197;22;20015;-81
2022/03/29 04:20:54;;;;;;;22.15;16.05;;;8.10;68.30;;;;;;6312884;22;20026;-82
2022/03/29 04:23:20;;;;;;;27.90;18.20;;;8.10;68.40;;;;;;6312857;22;20054;-82
2022/03/29 04:25:46;;;;;;;23.45;15.30;;;8.10;68.40;;;;;;6340796;22;20038;-81
2022/03/29 04:28:12;;;;;;;27.13;18.35;;;8.10;68.50;;;;;;6312399;22;20503;-81
2022/03/29 04:30:38;;;;;;;24.17;18.60;;;8.10;68.40;;;;;;6312664;22;20100;-81
2022/03/29 04:33:04;;;;;;;25.35;17.38;;;8.10;68.30;;;;;;6340533;22;20038;-81
2022/03/29 04:35:30;;;;;;;23.98;16.95;;;8.10;68.20;;;;;;6340088;22;20022;-81
2022/03/29 04:37:55;;;;;;;25.50;16.73;;;8.10;68.20;;;;;;6312466;22;20357;-82
2022/03/29 04:40:21;;;;;;;26.70;18.00;;;8.10;68.20;;;;;;6340597;22;20010;-81
2022/03/29 04:42:50;;;;;;;25.65;16.70;;;8.10;68.20;;;;;;6340289;22;20007;-81
2022/03/29 04:45:18;;;;;;;26.75;18.08;;;8.20;68.30;;;;;;6312716;22;20018;-81
2022/03/29 04:47:44;;;;;;;27.92;18.95;;;8.20;68.40;;;;;;6312147;22;20019;-81
2022/03/29 04:50:12;;;;;;;26.30;18.05;;;8.20;68.40;;;;;;6312435;22;20072;-81
2022/03/29 04:52:39;;;;;;;26.67;17.88;;;8.20;68.40;;;;;;6340634;22;20010;-81
2022/03/29 04:55:06;;;;;;;28.83;18.73;;;8.20;68.30;;;;;;6340021;22;20049;-82
2022/03/29 04:57:32;;;;;;;27.45;18.90;;;8.30;68.20;;;;;;6312393;22;20018;-81
2022/03/29 04:59:58;;;;;;;24.98;17.17;;;8.30;68.20;;;;;;6340185;22;20371;-81
2022/03/29 05:02:24;;;;;;;26.02;18.40;;;8.30;68.10;;;;;;6340274;22;20043;-81
2022/03/29 05:04:51;;;;;;;29.17;18.52;;;8.30;68.10;;;;;;6312281;22;20019;-81
2022/03/29 05:07:17;;;;;;;27.35;19.52;;;8.30;68.50;;;;;;6340204;22;20326;-81
2022/03/29 05:09:42;;;;;;;27.85;18.45;;;8.30;68.10;;;;;;6285734;22;20089;-82
2022/03/29 05:12:08;;;;;;;25.40;18.55;;;8.30;68.10;;;;;;6312334;22;20061;-81
2022/03/29 05:14:34;;;;;;;21.95;15.93;;;8.30;68.10;;;;;;6312298;22;20381;-81
2022/03/29 05:17:00;;;;;;;27.20;18.50;;;8.30;68.20;;;;;;6339817;22;20015;-82
2022/03/29 05:19:26;;;;;;;22.95;16.38;;;8.30;68.20;;;;;;6312948;22;20090;-81
2022/03/29 05:21:52;;;;;;;23.17;16.70;;;8.30;68.10;;;;;;6339686;22;20453;-81
2022/03/29 05:24:18;;;;;;;21.40;14.60;;;8.30;68.10;;;;;;6340495;22;20087;-82
2022/03/29 05:26:44;;;;;;;21.83;16.17;;;8.40;68.10;;;;;;6312227;22;20464;-81
2022/03/29 05:29:11;;;;;;;26.88;18.10;;;8.40;68.00;;;;;;6340091;22;20015;-81
2022/03/29 05:31:38;;;;;;;28.73;19.60;;;8.80;68.30;;;;;;6311684;22;20056;-81
2022/03/29 05:34:03;;;;;;;24.85;17.02;;;8.40;68.10;;;;;;6340135;22;20014;-81
2022/03/29 05:36:29;;;;;;;22.55;16.80;;;8.40;68.10;;;;;;6312281;22;20373;-81
2022/03/29 05:38:55;;;;;;;23.55;18.15;;;8.40;68.10;;;;;;6312272;22;20022;-82
2022/03/29 05:41:21;;;;;;;23.85;16.30;;;8.40;68.10;;;;;;6340050;22;20434;-82
2022/03/29 05:43:50;;;;;;;24.98;17.35;;;8.50;68.20;;;;;;6339953;22;20015;-82
2022/03/29 05:49:01;;;;;;;28.27;17.45;;;8.50;68.10;;;;;;6311753;22;20311;-82
2022/03/29 05:51:29;;;;;;;24.45;15.88;;;8.50;67.80;;;;;;6339236;22;20336;-81
2022/03/29 05:53:56;;;;;;;30.17;18.60;;;8.50;68.30;;;;;;6311972;22;20098;-81
2022/03/29 05:56:22;;;;;;;26.23;17.92;;;8.50;67.90;;;;;;6340063;22;20314;-81
2022/03/29 05:58:51;;;;;;;27.58;18.50;;;8.50;67.80;;;;;;6339450;22;20054;-82
2022/03/29 06:01:18;;;;;;;28.05;18.90;;;8.40;67.70;;;;;;6337945;22;20011;-81
2022/03/29 06:03:44;;;;;;;29.08;19.73;;;8.40;67.70;;;;;;6339807;22;20408;-81
2022/03/29 06:06:10;;;;;;;28.85;19.17;;;8.40;67.80;;;;;;6340065;22;20011;-82
2022/03/29 06:08:35;;;;;;;29.98;19.55;;;8.30;67.90;;;;;;6339292;22;20480;-81
2022/03/29 06:11:02;;;;;;;27.45;18.65;;;8.30;67.90;;;;;;6312053;22;20062;-81
2022/03/29 06:13:28;;;;;;;25.58;17.17;;;8.30;67.90;;;;;;6311658;22;20019;-81
2022/03/29 06:15:54;;;;;;;30.00;18.80;;;8.40;68.00;;;;;;6338772;22;20018;-81
2022/03/29 06:18:20;;;;;;;28.95;18.85;;;8.30;68.00;;;;;;6311594;22;20026;-81
2022/03/29 06:20:47;;;;;;;26.60;18.48;;;8.30;68.10;;;;;;6311783;22;20021;-81
2022/03/29 06:23:13;;;;;;;29.73;20.48;;;8.30;68.20;;;;;;6339581;22;20019;-81
2022/03/29 06:25:39;;;;;;;27.30;17.27;;;8.30;68.20;;;;;;6339039;22;20032;-81
2022/03/29 06:28:05;;;;;;;32.88;20.45;;;8.20;68.10;;;;;;6339126;22;20342;-82
2022/03/29 06:30:30;;;;;;;32.13;19.60;;;8.30;68.30;;;;;;6339084;22;20042;-82
2022/03/29 06:32:56;;;;;;;29.02;19.63;;;8.20;68.30;;;;;;6339567;22;20055;-82
2022/03/29 06:35:24;;;;;;;32.10;20.45;;;8.20;68.30;;;;;;6339144;22;20117;-82
2022/03/29 06:37:52;;;;;;;37.25;20.48;;;8.20;68.40;;;;;;6286101;22;20019;-82
2022/03/29 06:40:20;;;;;;;32.17;20.90;;;8.10;68.30;;;;;;6339296;22;20033;-83
2022/03/29 06:42:46;;;;;;;28.15;19.38;;;8.10;68.50;;;;;;6311880;22;20050;-81
2022/03/29 06:45:12;;;;;;;30.55;19.83;;;8.00;68.40;;;;;;6339404;22;20038;-81
2022/03/29 06:47:37;;;;;;;30.40;19.08;;;8.00;68.50;;;;;;6339445;22;20010;-83
2022/03/29 06:50:04;;;;;;;35.35;22.50;;;8.00;68.60;;;;;;6339003;22;20365;-81
2022/03/29 06:52:41;;;;;;;28.35;19.52;;;8.00;68.60;;;;;;6339675;22;20014;-82
2022/03/29 06:55:10;;;;;;;26.33;17.55;;;7.90;68.60;;;;;;6311559;22;20049;-82
2022/03/29 06:57:36;;;;;;;25.13;16.92;;;7.90;68.70;;;;;;6311930;22;20033;-82
2022/03/29 07:00:06;;;;;;;31.23;18.80;;;8.00;68.70;;;;;;6339147;22;20461;-82
2022/03/29 07:02:32;;;;;;;30.60;19.35;;;7.90;68.60;;;;;;6339723;22;20017;-82
2022/03/29 07:04:59;;;;;;;30.05;19.38;;;7.90;68.50;;;;;;6312106;22;20089;-82
2022/03/29 07:07:25;;;;;;;30.30;19.52;;;7.90;68.50;;;;;;6339273;22;20448;-82
2022/03/29 07:12:53;;;;;;;29.13;19.23;;;7.90;68.70;;;;;;6311738;22;20019;-82
2022/03/29 07:15:19;;;;;;;29.98;18.70;;;8.00;68.80;;;;;;6311528;22;20015;-83
2022/03/29 07:17:45;;;;;;;29.90;18.95;;;8.00;68.80;;;;;;6311387;22;20458;-83
2022/03/29 07:20:11;;;;;;;29.85;18.85;;;8.00;68.70;;;;;;6311587;22;20025;-82
2022/03/29 07:22:37;;;;;;;31.17;18.73;;;8.10;68.70;;;;;;6339630;22;20081;-83
2022/03/29 07:25:03;;;;;;;27.48;18.88;;;8.10;68.60;;;;;;6311767;22;20053;-83
2022/03/29 07:27:30;;;;;;;31.02;18.85;;;8.10;68.60;;;;;;6311664;22;20390;-82
2022/03/29 07:29:57;;;;;;;28.65;18.45;;;8.20;68.60;;;;;;6312185;22;20017;-83
2022/03/29 07:32:23;;;;;;;29.40;18.38;;;8.20;68.50;;;;;;6340146;22;20034;-83
2022/03/29 07:34:48;;;;;;;30.90;20.05;;;8.20;68.40;;;;;;6339177;22;20430;-83
2022/03/29 07:37:14;;;;;;;29.10;19.13;;;8.20;68.40;;;;;;6340306;22;20015;-83
2022/03/29 07:39:41;;;;;;;32.35;19.83;;;8.30;68.40;;;;;;6313481;22;20018;-83
2022/03/29 07:42:07;;;;;;;29.95;18.92;;;8.30;68.30;;;;;;6287249;22;20044;-83
2022/03/29 07:44:33;;;;;;;32.67;21.02;;;8.40;68.20;;;;;;6341075;22;20094;-83
2022/03/29 07:47:00;;;;;;;32.47;19.95;;;8.40;68.20;;;;;;6341011;22;20018;-82
2022/03/29 07:49:27;;;;;;;33.70;21.05;;;8.40;68.40;;;;;;6312695;22;20386;-82
2022/03/29 07:51:52;;;;;;;30.63;20.05;;;8.40;68.40;;;;;;6341027;22;20343;-83
2022/03/29 07:54:18;;;;;;;27.42;19.08;;;8.50;68.30;;;;;;6313849;22;20014;-83
2022/03/29 07:56:44;;;;;;;29.35;19.60;;;8.50;68.20;;;;;;6340815;22;20334;-83
2022/03/29 07:59:10;;;;;;;29.63;19.45;;;8.50;67.90;;;;;;6313738;22;20041;-83
2022/03/29 08:01:36;;;;;;;29.58;19.65;;;8.60;68.00;;;;;;6319460;22;20019;-84
2022/03/29 08:04:03;;;;;;;28.60;19.80;;;8.60;67.90;;;;;;6328604;22;20350;-83
2022/03/29 08:06:28;;;;;;;30.40;19.73;;;8.60;67.90;;;;;;6355102;22;20019;-83
2022/03/29 08:08:54;;;;;;;29.20;19.55;;;8.70;68.10;;;;;;6318215;22;20113;-83
2022/03/29 08:11:22;;;;;;;29.48;18.92;;;8.70;67.90;;;;;;6341343;22;20071;-83
2022/03/29 08:13:48;;;;;;;26.45;19.80;;;8.80;67.60;;;;;;6313573;22;20011;-83
2022/03/29 08:16:15;;;;;;;30.35;20.23;;;8.80;67.30;;;;;;6287895;22;20018;-83
2022/03/29 08:18:41;;;;;;;27.23;19.70;;;8.90;67.30;;;;;;6313036;22;20014;-84
2022/03/29 08:21:48;;;;;;;28.15;18.98;;;8.90;67.10;;;;;;6340828;22;20018;-83
2022/03/29 08:23:53;;;;;;;31.85;20.08;;;8.90;67.10;;;;;;6340849;22;20376;-84
2022/03/29 08:26:19;;;;;;;33.10;20.50;;;9.00;67.10;;;;;;6312679;22;20052;-84
2022/03/29 08:28:46;;;;;;;30.15;20.45;;;9.20;67.10;;;;;;6340917;22;20011;-84
2022/03/29 08:31:12;;;;;;;28.90;19.95;;;9.10;66.90;;;;;;6340270;22;20446;-84
2022/03/29 08:33:37;;;;;;;29.83;19.88;;;9.10;66.70;;;;;;6341022;22;20397;-84
2022/03/29 08:36:04;;;;;;;29.23;20.17;;;9.20;66.60;;;;;;6340911;22;20082;-84
2022/03/29 08:38:30;;;;;;;28.65;19.80;;;9.20;66.70;;;;;;6340444;22;20434;-84
2022/03/29 08:40:58;;;;;;;30.45;18.75;;;9.30;67.00;;;;;;6340825;22;20011;-84
2022/03/29 08:43:27;;;;;;;29.70;19.95;;;9.30;66.40;;;;;;6340765;22;20046;-84
2022/03/29 08:45:53;;;;;;;26.90;19.90;;;9.30;66.20;;;;;;6312458;22;20109;-84
2022/03/29 08:48:24;;;;;;;32.28;21.95;;;9.40;66.30;;;;;;6312420;22;20461;-85
2022/03/29 08:50:57;;;;;;;30.27;18.65;;;9.50;66.50;;;;;;6340224;22;20015;-84
2022/03/29 08:53:24;;;;;;;27.38;18.20;;;9.50;66.20;;;;;;6312777;22;20033;-84
2022/03/29 08:55:50;;;;;;;29.25;17.77;;;9.50;65.70;;;;;;6312862;22;20056;-85
2022/03/29 08:58:21;;;;;;;30.55;19.40;;;9.60;65.40;;;;;;6341241;22;20018;-85
2022/03/29 09:00:49;;;;;;;30.10;18.33;;;9.70;65.40;;;;;;6341412;22;20011;-85
2022/03/29 09:03:16;;;;;;;30.35;18.98;;;9.90;65.40;;;;;;6312799;22;20018;-85
2022/03/29 09:05:42;;;;;;;25.80;17.40;;;9.70;64.90;;;;;;6312987;22;20015;-86
2022/03/29 09:08:09;;;;;;;33.92;20.63;;;9.90;64.90;;;;;;6340995;22;20011;-85
2022/03/29 09:10:50;;;;;;;29.58;18.90;;;9.90;64.90;;;;;;6313063;22;20319;-85
2022/03/29 09:13:23;;;;;;;32.42;19.58;;;9.90;64.70;;;;;;6340913;22;20018;-85
2022/03/29 09:15:55;;;;;;;30.67;19.27;;;10.00;64.60;;;;;;6340414;22;20014;-85
2022/03/29 09:18:22;;;;;;;29.02;18.55;;;10.00;64.40;;;;;;6312962;22;20319;-85
2022/03/29 09:21:05;;;;;;;28.50;18.80;;;10.10;64.20;;;;;;6340532;22;20010;-85
2022/03/29 09:23:31;;;;;;;33.67;20.10;;;10.10;63.70;;;;;;6340158;22;20011;-85
2022/03/29 09:25:56;;;;;;;31.77;19.77;;;10.20;63.70;;;;;;6340405;22;20330;-85
2022/03/29 09:28:22;;;;;;;31.27;17.92;;;10.20;63.40;;;;;;6340164;22;20021;-86
2022/03/29 09:30:51;;;;;;;34.33;18.95;;;10.20;63.20;;;;;;6340612;22;20049;-85
2022/03/29 09:33:29;;;;;;;27.73;18.10;;;10.30;63.00;;;;;;6312389;22;20046;-85
2022/03/29 09:35:58;;;;;;;34.53;19.73;;;10.30;62.60;;;;;;6340269;22;20015;-85
2022/03/29 09:38:34;;;;;;;28.60;18.17;;;10.30;62.60;;;;;;6339895;22;20027;-85
2022/03/29 09:41:01;;;;;;;28.77;18.30;;;10.60;62.60;;;;;;6286824;22;20026;-85
2022/03/29 09:43:28;;;;;;;31.17;19.80;;;10.50;62.80;;;;;;6312393;22;20022;-85
2022/03/29 09:45:59;;;;;;;29.02;18.65;;;10.60;62.80;;;;;;6311707;22;20023;-86
2022/03/29 09:48:24;;;;;;;31.23;19.58;;;10.70;62.30;;;;;;6313370;22;20015;-85
2022/03/29 09:51:08;;;;;;;32.78;21.23;;;10.80;62.20;;;;;;6340645;22;20101;-85
2022/03/29 09:53:46;;;;;;;33.23;19.07;;;10.80;62.50;;;;;;6340250;22;20019;-85
2022/03/29 09:56:15;;;;;;;28.77;17.88;;;10.90;62.20;;;;;;6339689;22;20458;-85
2022/03/29 09:58:41;;;;;;;31.73;18.83;;;11.00;62.20;;;;;;6340091;22;20010;-85
2022/03/29 10:01:24;;;;;;;34.97;20.15;;;11.00;61.90;;;;;;6339769;22;20492;-85
2022/03/29 10:03:54;;;;;;;35.95;19.83;;;11.00;61.10;;;;;;6339773;22;20441;-85
2022/03/29 10:06:23;;;;;;;31.83;18.67;;;11.10;61.60;;;;;;6311720;22;20015;-85
2022/03/29 10:11:37;;;;;;;30.73;18.13;;;11.10;60.70;;;;;;6311930;22;20026;-86
2022/03/29 10:14:04;;;;;;;23.95;17.23;;;11.20;60.60;;;;;;6339599;22;20029;-86
2022/03/29 10:16:30;;;;;;;34.35;18.40;;;11.20;60.60;;;;;;6339634;22;20014;-85
2022/03/29 10:18:56;;;;;;;28.35;18.08;;;11.20;60.30;;;;;;6339728;22;20387;-86
2022/03/29 10:21:22;;;;;;;28.65;18.33;;;11.30;60.30;;;;;;6312169;22;20019;-86
2022/03/29 10:23:51;;;;;;;27.83;19.08;;;11.30;59.90;;;;;;6311952;22;20014;-85
2022/03/29 10:26:21;;;;;;;29.77;18.60;;;11.40;59.80;;;;;;6339799;22;20017;-85
2022/03/29 10:28:48;;;;;;;28.40;18.80;;;11.40;59.40;;;;;;6339520;22;20015;-87
2022/03/29 10:31:48;;;;;;;32.67;19.85;;;11.50;59.30;;;;;;6311898;22;20014;-86
2022/03/29 10:34:18;;;;;;;31.83;20.00;;;11.60;58.50;;;;;;6188694;23;20051;-86
2022/03/29 10:37:07;;;;;;;26.05;17.45;;;11.60;59.30;;;;;;6188376;23;20024;-86
2022/03/29 10:39:43;;;;;;;27.38;18.08;;;11.80;58.90;;;;;;6213788;23;20354;-86
2022/03/29 10:42:40;;;;;;;28.85;17.70;;;11.90;58.80;;;;;;6213884;23;20020;-85
2022/03/29 10:45:14;;;;;;;28.20;17.73;;;12.00;58.40;;;;;;6188362;23;20017;-86
2022/03/29 10:47:42;;;;;;;29.65;18.60;;;12.10;58.30;;;;;;6188593;23;20017;-86
2022/03/29 10:50:10;;;;;;;25.25;18.02;;;12.30;58.40;;;;;;6213577;23;20025;-86
2022/03/29 10:52:40;;;;;;;29.63;18.88;;;12.40;58.40;;;;;;6244065;23;20016;-86
2022/03/29 10:55:28;;;;;;;30.25;18.83;;;12.50;58.10;;;;;;6218621;22;20058;-86
2022/03/29 10:58:12;;;;;;;25.08;16.98;;;12.60;57.60;;;;;;6244131;23;20456;-86
2022/03/29 11:00:46;;;;;;;27.48;17.98;;;12.70;58.00;;;;;;6193451;23;20013;-85
2022/03/29 11:03:20;;;;;;;30.05;18.50;;;12.80;58.00;;;;;;6243839;23;20028;-86
2022/03/29 11:06:08;;;;;;;29.52;17.70;;;12.90;57.70;;;;;;6244113;23;20012;-86
2022/03/29 11:08:36;;;;;;;27.88;17.42;;;13.00;56.20;;;;;;6193423;23;20023;-86
2022/03/29 11:11:03;;;;;;;30.45;18.33;;;13.00;56.10;;;;;;6308009;22;20015;-85
2022/03/29 11:13:38;;;;;;;27.75;17.75;;;12.90;56.00;;;;;;6309922;22;20504;-86
2022/03/29 11:16:25;;;;;;;28.27;18.95;;;13.00;55.80;;;;;;6309637;22;20061;-85
2022/03/29 11:18:52;;;;;;;28.27;18.10;;;13.00;56.00;;;;;;6282904;22;20491;-86
2022/03/29 11:21:38;;;;;;;29.33;17.52;;;13.00;56.00;;;;;;6310119;22;20304;-86
2022/03/29 11:24:10;;;;;;;28.05;16.58;;;13.10;55.10;;;;;;6310174;22;20011;-86
2022/03/29 11:26:37;;;;;;;29.67;18.23;;;13.10;56.00;;;;;;6310020;22;20339;-86
2022/03/29 11:29:07;;;;;;;23.60;17.17;;;13.20;56.10;;;;;;6309902;22;20018;-86
2022/03/29 11:31:36;;;;;;;27.50;17.05;;;13.40;55.30;;;;;;6309888;22;20307;-86
2022/03/29 11:34:02;;;;;;;28.88;17.63;;;13.40;55.00;;;;;;6282734;22;20077;-86
2022/03/29 11:36:28;;;;;;;36.65;19.10;;;13.40;54.50;;;;;;6310012;22;20049;-86
2022/03/29 11:38:54;;;;;;;30.45;17.67;;;13.40;54.20;;;;;;6310279;22;20019;-86
2022/03/29 11:41:29;;;;;;;28.58;17.33;;;13.40;53.80;;;;;;6309757;22;20034;-86
2022/03/29 11:44:01;;;;;;;24.77;18.05;;;13.40;53.70;;;;;;6310187;22;20078;-86
2022/03/29 11:46:45;;;;;;;42.28;19.80;;;13.30;53.80;;;;;;6281992;22;20408;-86
2022/03/29 11:49:11;;;;;;;24.52;16.23;;;13.50;53.90;;;;;;6288207;22;20098;-86
2022/03/29 11:51:37;;;;;;;25.13;16.75;;;13.20;54.40;;;;;;6341318;22;20057;-85
2022/03/29 11:54:02;;;;;;;27.00;17.70;;;13.30;54.80;;;;;;6313143;22;20415;-86
2022/03/29 11:56:28;;;;;;;22.70;16.20;;;13.20;54.90;;;;;;6340913;22;20019;-86
2022/03/29 11:58:55;;;;;;;27.35;18.95;;;13.30;55.20;;;;;;6341354;22;20041;-86
2022/03/29 12:01:28;;;;;;;23.30;16.30;;;13.30;54.50;;;;;;6340973;22;20379;-85
2022/03/29 12:04:01;;;;;;;22.92;15.27;;;13.50;54.60;;;;;;6341019;22;20015;-86
2022/03/29 12:06:28;;;;;;;24.80;16.95;;;13.50;55.10;;;;;;6341151;22;20132;-85
2022/03/29 12:09:00;;;;;;;27.08;17.05;;;13.60;55.10;;;;;;6312731;22;20450;-87
2022/03/29 12:11:31;;;;;;;25.88;17.13;;;13.60;54.30;;;;;;6313219;22;20014;-86
2022/03/29 12:14:08;;;;;;;26.73;17.20;;;13.70;54.20;;;;;;6313071;22;20021;-87
2022/03/29 12:16:45;;;;;;;25.08;16.83;;;13.80;53.80;;;;;;6313108;22;20438;-86
2022/03/29 12:19:23;;;;;;;30.67;17.45;;;13.90;53.80;;;;;;6341231;22;20011;-87
2022/03/29 12:21:53;;;;;;;28.52;16.90;;;13.90;53.90;;;;;;6313146;22;20019;-87
2022/03/29 12:24:20;;;;;;;22.98;17.63;;;13.90;54.00;;;;;;6313461;22;20021;-90
2022/03/29 12:26:47;;;;;;;28.55;17.88;;;14.00;54.30;;;;;;6341921;22;20019;-89
2022/03/29 12:29:16;;;;;;;26.90;17.00;;;14.00;54.40;;;;;;6313561;22;20046;-89
2022/03/29 12:31:42;;;;;;;26.20;18.05;;;14.10;53.70;;;;;;6288132;22;20019;-89
2022/03/29 12:34:08;;;;;;;28.50;17.73;;;14.20;53.80;;;;;;6341071;22;20010;-89
2022/03/29 12:36:39;;;;;;;25.92;16.58;;;14.30;54.20;;;;;;6313039;22;20396;-90
2022/03/29 12:39:08;;;;;;;23.88;15.48;;;14.30;53.80;;;;;;6314659;22;20015;-89
2022/03/29 12:41:33;;;;;;;26.08;17.45;;;14.30;53.60;;;;;;6341784;22;20011;-89
2022/03/29 12:44:00;;;;;;;25.40;17.13;;;14.40;53.40;;;;;;6310626;22;20408;-89
2022/03/29 12:46:26;;;;;;;25.15;16.58;;;14.40;53.20;;;;;;6284442;22;20050;-89
2022/03/29 12:48:53;;;;;;;25.95;16.10;;;14.30;52.50;;;;;;6340584;22;20014;-88